Redding, Connecticut
Current Conditions -  °F | °C
As of 3:53 PM on Thursday 23 Oct 2014 (Local Time) from KDXR Reporting Station
Overcast Overcast  
Wind Chill: 50°   Ceiling: 1700
Heat Index: 50°   Visibility: 10mi
Dew Point: 42°   Wind: 13mph
Humidity: 74%   Direction: 340°NNW
Pressure: 29.7"   Gusts: 18mph
Location:  41.3°N, 73.38°W
Report Text: KDXR 231953Z 34011G16KT 10SM OVC017 10/06 A2970 RMK AO2 SLP056 T01000056
Loading
Personal Weather Stations






























Interactive Weather Map
Tropical Storm Tracking
New forecast layout! Learn more

10-Day Weather Forecast

Advertisements
Track Severe Weather on mobile